2OI9 weather

Comprix Heliport
Groveport, Ohio, United States

Public forecast

Using degrees Fahrenheit for public forecast. Weather courtesy of forecast.io.

METAR (pilot weather report)

Closest report is Rickenbacker International Airport, 1.8 nm (3.3 km) SSW. Retrieved 2019/05/21 14:35 UTC (0 seconds ago):

KLCK 211435Z AUTO 07009KT 10SM CLR 11/04 A3018 RMK AO2 T01060035

TAF (pilot weather forecast)

Closest forecast is Rickenbacker International Airport, 1.8 nm (3.3 km) SSW. Retrieved 2019/05/21 12:33 UTC (2 hours ago):

TAF KLCK 211129Z 2112/2212 05006KT P6SM FEW030 BKN150 FM211500 07008KT P6SM BKN100 FM220300 07009KT P6SM FEW100 FM221100 11007KT P6SM SCT070 BKN250